sensor_id;sensor_type;location;lat;lon;timestamp;P1;durP1;ratioP1;P2;durP2;ratioP2
22144;SDS011;11238;48.730;11.566;2023-05-07T00:00:21;4.72;;;3.92;;
22144;SDS011;11238;48.730;11.566;2023-05-07T00:02:48;6.78;;;4.25;;
22144;SDS011;11238;48.730;11.566;2023-05-07T00:05:14;7.90;;;4.30;;
22144;SDS011;11238;48.730;11.566;2023-05-07T00:07:40;5.72;;;4.05;;
22144;SDS011;11238;48.730;11.566;2023-05-07T00:10:15;5.22;;;3.85;;
22144;SDS011;11238;48.730;11.566;2023-05-07T00:12:41;7.78;;;4.35;;
22144;SDS011;11238;48.730;11.566;2023-05-07T00:15:08;9.30;;;3.67;;
22144;SDS011;11238;48.730;11.566;2023-05-07T00:17:34;6.57;;;4.40;;
22144;SDS011;11238;48.730;11.566;2023-05-07T00:20:00;8.10;;;4.25;;
22144;SDS011;11238;48.730;11.566;2023-05-07T00:22:26;5.85;;;4.82;;
22144;SDS011;11238;48.730;11.566;2023-05-07T00:24:52;6.32;;;5.10;;
22144;SDS011;11238;48.730;11.566;2023-05-07T00:27:20;7.45;;;4.55;;
22144;SDS011;11238;48.730;11.566;2023-05-07T00:29:47;5.85;;;3.85;;
22144;SDS011;11238;48.730;11.566;2023-05-07T00:32:13;4.65;;;3.88;;
22144;SDS011;11238;48.730;11.566;2023-05-07T00:34:41;5.25;;;3.90;;
22144;SDS011;11238;48.730;11.566;2023-05-07T00:37:07;4.82;;;3.78;;
22144;SDS011;11238;48.730;11.566;2023-05-07T00:39:37;6.03;;;3.63;;
22144;SDS011;11238;48.730;11.566;2023-05-07T00:42:03;5.18;;;3.80;;
22144;SDS011;11238;48.730;11.566;2023-05-07T00:44:30;4.45;;;3.70;;
22144;SDS011;11238;48.730;11.566;2023-05-07T00:46:58;5.82;;;3.80;;
22144;SDS011;11238;48.730;11.566;2023-05-07T00:49:35;4.85;;;3.60;;
22144;SDS011;11238;48.730;11.566;2023-05-07T00:52:07;6.75;;;3.83;;
22144;SDS011;11238;48.730;11.566;2023-05-07T00:54:37;6.95;;;3.45;;
22144;SDS011;11238;48.730;11.566;2023-05-07T00:57:09;5.78;;;3.55;;
22144;SDS011;11238;48.730;11.566;2023-05-07T00:59:36;4.53;;;3.25;;
22144;SDS011;11238;48.730;11.566;2023-05-07T01:02:06;5.53;;;3.83;;
22144;SDS011;11238;48.730;11.566;2023-05-07T01:04:32;5.93;;;3.55;;
22144;SDS011;11238;48.730;11.566;2023-05-07T01:06:58;5.28;;;3.92;;
22144;SDS011;11238;48.730;11.566;2023-05-07T01:09:28;10.85;;;3.90;;
22144;SDS011;11238;48.730;11.566;2023-05-07T01:11:57;3.55;;;3.25;;
22144;SDS011;11238;48.730;11.566;2023-05-07T01:14:27;4.55;;;3.90;;
22144;SDS011;11238;48.730;11.566;2023-05-07T01:16:57;6.05;;;3.97;;
22144;SDS011;11238;48.730;11.566;2023-05-07T01:19:27;5.82;;;4.00;;
22144;SDS011;11238;48.730;11.566;2023-05-07T01:21:56;4.40;;;3.60;;
22144;SDS011;11238;48.730;11.566;2023-05-07T01:24:37;4.75;;;3.70;;
22144;SDS011;11238;48.730;11.566;2023-05-07T01:27:06;6.43;;;3.80;;
22144;SDS011;11238;48.730;11.566;2023-05-07T01:29:33;5.45;;;4.22;;
22144;SDS011;11238;48.730;11.566;2023-05-07T01:32:00;7.82;;;4.30;;
22144;SDS011;11238;48.730;11.566;2023-05-07T01:34:31;4.93;;;4.18;;
22144;SDS011;11238;48.730;11.566;2023-05-07T01:37:01;8.15;;;4.35;;
22144;SDS011;11238;48.730;11.566;2023-05-07T01:39:31;6.15;;;5.05;;
22144;SDS011;11238;48.730;11.566;2023-05-07T01:42:01;4.70;;;4.20;;
22144;SDS011;11238;48.730;11.566;2023-05-07T01:44:27;7.82;;;4.05;;
22144;SDS011;11238;48.730;11.566;2023-05-07T01:46:57;6.10;;;4.53;;
22144;SDS011;11238;48.730;11.566;2023-05-07T01:49:23;7.57;;;4.90;;
22144;SDS011;11238;48.730;11.566;2023-05-07T01:51:52;6.57;;;4.20;;
22144;SDS011;11238;48.730;11.566;2023-05-07T01:54:25;6.10;;;4.07;;
22144;SDS011;11238;48.730;11.566;2023-05-07T01:56:56;12.50;;;4.13;;
22144;SDS011;11238;48.730;11.566;2023-05-07T01:59:23;4.22;;;3.83;;
22144;SDS011;11238;48.730;11.566;2023-05-07T02:01:49;5.03;;;4.10;;
22144;SDS011;11238;48.730;11.566;2023-05-07T02:04:14;7.85;;;4.53;;
22144;SDS011;11238;48.730;11.566;2023-05-07T02:06:43;7.47;;;4.57;;
22144;SDS011;11238;48.730;11.566;2023-05-07T02:09:10;4.10;;;3.65;;
22144;SDS011;11238;48.730;11.566;2023-05-07T02:11:44;6.85;;;4.10;;
22144;SDS011;11238;48.730;11.566;2023-05-07T02:14:13;7.32;;;4.22;;
22144;SDS011;11238;48.730;11.566;2023-05-07T02:16:38;5.82;;;4.13;;
22144;SDS011;11238;48.730;11.566;2023-05-07T02:19:09;5.82;;;4.40;;
22144;SDS011;11238;48.730;11.566;2023-05-07T02:21:38;4.70;;;3.75;;
22144;SDS011;11238;48.730;11.566;2023-05-07T02:24:09;5.28;;;4.18;;
22144;SDS011;11238;48.730;11.566;2023-05-07T02:26:39;6.85;;;4.32;;
22144;SDS011;11238;48.730;11.566;2023-05-07T02:29:10;5.90;;;4.35;;
22144;SDS011;11238;48.730;11.566;2023-05-07T02:31:37;6.28;;;4.40;;
22144;SDS011;11238;48.730;11.566;2023-05-07T02:34:03;7.32;;;4.50;;
22144;SDS011;11238;48.730;11.566;2023-05-07T02:36:30;5.53;;;4.75;;
22144;SDS011;11238;48.730;11.566;2023-05-07T02:39:05;8.35;;;4.35;;
22144;SDS011;11238;48.730;11.566;2023-05-07T02:41:30;8.07;;;4.47;;
22144;SDS011;11238;48.730;11.566;2023-05-07T02:44:00;7.28;;;4.40;;
22144;SDS011;11238;48.730;11.566;2023-05-07T02:46:29;7.07;;;4.80;;
22144;SDS011;11238;48.730;11.566;2023-05-07T02:49:00;5.50;;;4.50;;
22144;SDS011;11238;48.730;11.566;2023-05-07T02:51:26;7.75;;;4.60;;
22144;SDS011;11238;48.730;11.566;2023-05-07T02:54:01;5.63;;;4.30;;
22144;SDS011;11238;48.730;11.566;2023-05-07T02:56:31;4.90;;;4.30;;
22144;SDS011;11238;48.730;11.566;2023-05-07T02:59:00;4.60;;;4.18;;
22144;SDS011;11238;48.730;11.566;2023-05-07T03:01:30;8.02;;;4.60;;
22144;SDS011;11238;48.730;11.566;2023-05-07T03:04:05;6.15;;;4.47;;
22144;SDS011;11238;48.730;11.566;2023-05-07T03:06:31;5.70;;;4.07;;
22144;SDS011;11238;48.730;11.566;2023-05-07T03:09:02;5.22;;;4.00;;
22144;SDS011;11238;48.730;11.566;2023-05-07T03:11:29;5.32;;;4.47;;
22144;SDS011;11238;48.730;11.566;2023-05-07T03:13:58;6.97;;;4.40;;
22144;SDS011;11238;48.730;11.566;2023-05-07T03:16:26;6.32;;;4.22;;
22144;SDS011;11238;48.730;11.566;2023-05-07T03:18:53;6.47;;;4.60;;
22144;SDS011;11238;48.730;11.566;2023-05-07T03:21:19;4.63;;;4.22;;
22144;SDS011;11238;48.730;11.566;2023-05-07T03:23:55;6.18;;;4.10;;
22144;SDS011;11238;48.730;11.566;2023-05-07T03:26:27;7.47;;;4.57;;
22144;SDS011;11238;48.730;11.566;2023-05-07T03:28:53;7.13;;;4.97;;
22144;SDS011;11238;48.730;11.566;2023-05-07T03:31:22;7.00;;;4.75;;
22144;SDS011;11238;48.730;11.566;2023-05-07T03:33:55;7.18;;;4.55;;
22144;SDS011;11238;48.730;11.566;2023-05-07T03:36:23;6.43;;;4.43;;
22144;SDS011;11238;48.730;11.566;2023-05-07T03:38:52;5.28;;;4.25;;
22144;SDS011;11238;48.730;11.566;2023-05-07T03:41:21;5.03;;;4.53;;
22144;SDS011;11238;48.730;11.566;2023-05-07T03:43:47;5.38;;;4.88;;
22144;SDS011;11238;48.730;11.566;2023-05-07T03:46:13;5.50;;;4.72;;
22144;SDS011;11238;48.730;11.566;2023-05-07T03:48:40;6.05;;;4.80;;
22144;SDS011;11238;48.730;11.566;2023-05-07T03:51:09;6.90;;;4.43;;
22144;SDS011;11238;48.730;11.566;2023-05-07T03:53:35;5.85;;;4.38;;
22144;SDS011;11238;48.730;11.566;2023-05-07T03:56:01;7.70;;;4.60;;
22144;SDS011;11238;48.730;11.566;2023-05-07T03:58:31;6.05;;;4.75;;
22144;SDS011;11238;48.730;11.566;2023-05-07T04:01:00;6.88;;;4.35;;
22144;SDS011;11238;48.730;11.566;2023-05-07T04:03:29;4.80;;;4.30;;
22144;SDS011;11238;48.730;11.566;2023-05-07T04:06:00;5.70;;;4.57;;
22144;SDS011;11238;48.730;11.566;2023-05-07T04:08:26;5.97;;;4.40;;
22144;SDS011;11238;48.730;11.566;2023-05-07T04:10:57;8.95;;;5.30;;
22144;SDS011;11238;48.730;11.566;2023-05-07T04:13:25;8.80;;;4.72;;
22144;SDS011;11238;48.730;11.566;2023-05-07T04:15:51;4.95;;;4.50;;
22144;SDS011;11238;48.730;11.566;2023-05-07T04:18:18;5.65;;;4.03;;
22144;SDS011;11238;48.730;11.566;2023-05-07T04:20:49;8.02;;;4.53;;
22144;SDS011;11238;48.730;11.566;2023-05-07T04:23:15;5.40;;;4.20;;
22144;SDS011;11238;48.730;11.566;2023-05-07T04:25:42;5.00;;;4.50;;
22144;SDS011;11238;48.730;11.566;2023-05-07T04:28:17;7.10;;;4.57;;
22144;SDS011;11238;48.730;11.566;2023-05-07T04:30:50;7.50;;;4.75;;
22144;SDS011;11238;48.730;11.566;2023-05-07T04:33:17;6.05;;;4.32;;
22144;SDS011;11238;48.730;11.566;2023-05-07T04:35:44;8.60;;;4.30;;
22144;SDS011;11238;48.730;11.566;2023-05-07T04:38:10;6.32;;;5.10;;
22144;SDS011;11238;48.730;11.566;2023-05-07T04:40:36;5.78;;;4.80;;
22144;SDS011;11238;48.730;11.566;2023-05-07T04:43:05;6.97;;;4.25;;
22144;SDS011;11238;48.730;11.566;2023-05-07T04:45:39;5.97;;;4.90;;
22144;SDS011;11238;48.730;11.566;2023-05-07T04:48:08;5.43;;;4.70;;
22144;SDS011;11238;48.730;11.566;2023-05-07T04:50:36;4.82;;;4.30;;
22144;SDS011;11238;48.730;11.566;2023-05-07T04:53:19;8.60;;;4.57;;
22144;SDS011;11238;48.730;11.566;2023-05-07T04:55:47;6.43;;;4.30;;
22144;SDS011;11238;48.730;11.566;2023-05-07T04:58:13;6.63;;;4.60;;
22144;SDS011;11238;48.730;11.566;2023-05-07T05:00:42;6.88;;;5.35;;
22144;SDS011;11238;48.730;11.566;2023-05-07T05:03:11;6.00;;;5.10;;
22144;SDS011;11238;48.730;11.566;2023-05-07T05:05:38;9.55;;;6.35;;
22144;SDS011;11238;48.730;11.566;2023-05-07T05:08:04;6.90;;;5.82;;
22144;SDS011;11238;48.730;11.566;2023-05-07T05:10:36;8.60;;;6.28;;
22144;SDS011;11238;48.730;11.566;2023-05-07T05:13:10;8.57;;;6.47;;
22144;SDS011;11238;48.730;11.566;2023-05-07T05:15:44;10.85;;;6.80;;
22144;SDS011;11238;48.730;11.566;2023-05-07T05:18:11;8.20;;;6.82;;
22144;SDS011;11238;48.730;11.566;2023-05-07T05:20:38;10.13;;;6.78;;
22144;SDS011;11238;48.730;11.566;2023-05-07T05:23:04;7.65;;;6.95;;
22144;SDS011;11238;48.730;11.566;2023-05-07T05:25:31;12.30;;;7.80;;
22144;SDS011;11238;48.730;11.566;2023-05-07T05:28:03;10.90;;;6.65;;
22144;SDS011;11238;48.730;11.566;2023-05-07T05:30:32;9.00;;;6.80;;
22144;SDS011;11238;48.730;11.566;2023-05-07T05:32:58;8.65;;;7.53;;
22144;SDS011;11238;48.730;11.566;2023-05-07T05:35:32;8.93;;;7.93;;
22144;SDS011;11238;48.730;11.566;2023-05-07T05:38:01;11.85;;;7.40;;
22144;SDS011;11238;48.730;11.566;2023-05-07T05:40:29;7.72;;;6.93;;
22144;SDS011;11238;48.730;11.566;2023-05-07T05:42:55;11.10;;;8.20;;
22144;SDS011;11238;48.730;11.566;2023-05-07T05:45:21;8.70;;;7.32;;
22144;SDS011;11238;48.730;11.566;2023-05-07T05:47:47;9.55;;;7.57;;
22144;SDS011;11238;48.730;11.566;2023-05-07T05:50:17;9.90;;;7.97;;
22144;SDS011;11238;48.730;11.566;2023-05-07T05:52:43;9.52;;;8.15;;
22144;SDS011;11238;48.730;11.566;2023-05-07T05:55:09;10.30;;;7.97;;
22144;SDS011;11238;48.730;11.566;2023-05-07T05:57:36;11.80;;;8.00;;
22144;SDS011;11238;48.730;11.566;2023-05-07T06:00:06;8.85;;;7.95;;
22144;SDS011;11238;48.730;11.566;2023-05-07T06:02:46;11.13;;;8.13;;
22144;SDS011;11238;48.730;11.566;2023-05-07T06:05:21;10.95;;;8.70;;
22144;SDS011;11238;48.730;11.566;2023-05-07T06:07:52;10.40;;;7.72;;
22144;SDS011;11238;48.730;11.566;2023-05-07T06:10:38;10.02;;;7.45;;
22144;SDS011;11238;48.730;11.566;2023-05-07T06:13:09;9.15;;;7.47;;
22144;SDS011;11238;48.730;11.566;2023-05-07T06:15:55;8.18;;;7.32;;
22144;SDS011;11238;48.730;11.566;2023-05-07T06:18:31;11.18;;;7.78;;
22144;SDS011;11238;48.730;11.566;2023-05-07T06:20:57;8.30;;;7.38;;
22144;SDS011;11238;48.730;11.566;2023-05-07T06:23:26;9.32;;;7.93;;
22144;SDS011;11238;48.730;11.566;2023-05-07T06:25:52;8.75;;;7.40;;
22144;SDS011;11238;48.730;11.566;2023-05-07T06:28:22;8.40;;;7.43;;
22144;SDS011;11238;48.730;11.566;2023-05-07T06:30:48;8.77;;;7.88;;
22144;SDS011;11238;48.730;11.566;2023-05-07T06:33:16;11.23;;;7.20;;
22144;SDS011;11238;48.730;11.566;2023-05-07T06:35:42;8.77;;;7.40;;
22144;SDS011;11238;48.730;11.566;2023-05-07T06:38:08;11.60;;;7.28;;
22144;SDS011;11238;48.730;11.566;2023-05-07T06:43:32;9.93;;;7.80;;
22144;SDS011;11238;48.730;11.566;2023-05-07T06:46:21;11.68;;;7.65;;
22144;SDS011;11238;48.730;11.566;2023-05-07T06:48:48;9.23;;;7.80;;
22144;SDS011;11238;48.730;11.566;2023-05-07T06:51:14;11.85;;;7.30;;
22144;SDS011;11238;48.730;11.566;2023-05-07T06:53:39;8.63;;;6.93;;
22144;SDS011;11238;48.730;11.566;2023-05-07T06:56:09;7.82;;;6.85;;
22144;SDS011;11238;48.730;11.566;2023-05-07T06:58:36;7.88;;;6.90;;
22144;SDS011;11238;48.730;11.566;2023-05-07T07:01:03;8.00;;;7.18;;
22144;SDS011;11238;48.730;11.566;2023-05-07T07:03:30;9.80;;;7.60;;
22144;SDS011;11238;48.730;11.566;2023-05-07T07:05:57;7.93;;;6.80;;
22144;SDS011;11238;48.730;11.566;2023-05-07T07:08:23;8.18;;;7.32;;
22144;SDS011;11238;48.730;11.566;2023-05-07T07:10:50;8.85;;;7.00;;
22144;SDS011;11238;48.730;11.566;2023-05-07T07:13:16;9.23;;;6.97;;
22144;SDS011;11238;48.730;11.566;2023-05-07T07:15:43;9.60;;;6.40;;
22144;SDS011;11238;48.730;11.566;2023-05-07T07:18:08;9.38;;;7.25;;
22144;SDS011;11238;48.730;11.566;2023-05-07T07:20:34;7.53;;;6.80;;
22144;SDS011;11238;48.730;11.566;2023-05-07T07:23:01;10.02;;;6.38;;
22144;SDS011;11238;48.730;11.566;2023-05-07T07:25:29;6.43;;;5.82;;
22144;SDS011;11238;48.730;11.566;2023-05-07T07:27:55;9.25;;;7.57;;
22144;SDS011;11238;48.730;11.566;2023-05-07T07:30:23;8.25;;;7.10;;
22144;SDS011;11238;48.730;11.566;2023-05-07T07:32:53;9.32;;;6.55;;
22144;SDS011;11238;48.730;11.566;2023-05-07T07:35:19;7.60;;;6.80;;
22144;SDS011;11238;48.730;11.566;2023-05-07T07:37:47;9.50;;;6.45;;
22144;SDS011;11238;48.730;11.566;2023-05-07T07:40:15;8.77;;;6.82;;
22144;SDS011;11238;48.730;11.566;2023-05-07T07:42:43;8.13;;;7.13;;
22144;SDS011;11238;48.730;11.566;2023-05-07T07:45:10;7.88;;;6.95;;
22144;SDS011;11238;48.730;11.566;2023-05-07T07:47:40;8.63;;;6.65;;
22144;SDS011;11238;48.730;11.566;2023-05-07T07:50:06;9.13;;;6.53;;
22144;SDS011;11238;48.730;11.566;2023-05-07T07:52:33;8.95;;;6.72;;
22144;SDS011;11238;48.730;11.566;2023-05-07T07:54:59;6.82;;;6.13;;
22144;SDS011;11238;48.730;11.566;2023-05-07T07:57:25;7.65;;;6.85;;
22144;SDS011;11238;48.730;11.566;2023-05-07T07:59:51;9.90;;;6.43;;
22144;SDS011;11238;48.730;11.566;2023-05-07T08:02:18;10.00;;;6.85;;
22144;SDS011;11238;48.730;11.566;2023-05-07T08:04:44;8.32;;;6.25;;
22144;SDS011;11238;48.730;11.566;2023-05-07T08:07:11;6.65;;;5.97;;
22144;SDS011;11238;48.730;11.566;2023-05-07T08:09:40;8.70;;;7.15;;
22144;SDS011;11238;48.730;11.566;2023-05-07T08:12:07;7.38;;;6.07;;
22144;SDS011;11238;48.730;11.566;2023-05-07T08:14:34;8.45;;;6.72;;
22144;SDS011;11238;48.730;11.566;2023-05-07T08:17:03;7.07;;;6.38;;
22144;SDS011;11238;48.730;11.566;2023-05-07T08:19:36;9.00;;;6.22;;
22144;SDS011;11238;48.730;11.566;2023-05-07T08:22:17;8.10;;;6.97;;
22144;SDS011;11238;48.730;11.566;2023-05-07T08:27:31;6.93;;;5.72;;
22144;SDS011;11238;48.730;11.566;2023-05-07T08:29:57;9.23;;;6.20;;
22144;SDS011;11238;48.730;11.566;2023-05-07T08:32:23;8.68;;;5.90;;
22144;SDS011;11238;48.730;11.566;2023-05-07T08:34:50;7.72;;;6.00;;
22144;SDS011;11238;48.730;11.566;2023-05-07T08:37:16;6.55;;;5.78;;
22144;SDS011;11238;48.730;11.566;2023-05-07T08:39:43;5.50;;;5.00;;
22144;SDS011;11238;48.730;11.566;2023-05-07T08:42:16;8.20;;;6.28;;
22144;SDS011;11238;48.730;11.566;2023-05-07T08:44:45;7.32;;;6.28;;
22144;SDS011;11238;48.730;11.566;2023-05-07T08:47:12;10.15;;;6.35;;
22144;SDS011;11238;48.730;11.566;2023-05-07T08:49:39;6.70;;;5.82;;
22144;SDS011;11238;48.730;11.566;2023-05-07T08:52:06;5.75;;;5.25;;
22144;SDS011;11238;48.730;11.566;2023-05-07T08:54:33;5.82;;;5.22;;
22144;SDS011;11238;48.730;11.566;2023-05-07T08:57:01;8.20;;;5.95;;
22144;SDS011;11238;48.730;11.566;2023-05-07T08:59:27;6.65;;;5.78;;
22144;SDS011;11238;48.730;11.566;2023-05-07T09:01:53;9.23;;;6.35;;
22144;SDS011;11238;48.730;11.566;2023-05-07T09:04:19;6.22;;;5.60;;
22144;SDS011;11238;48.730;11.566;2023-05-07T09:06:45;7.25;;;5.63;;
22144;SDS011;11238;48.730;11.566;2023-05-07T09:09:21;6.55;;;4.80;;
22144;SDS011;11238;48.730;11.566;2023-05-07T09:11:56;7.63;;;5.53;;
22144;SDS011;11238;48.730;11.566;2023-05-07T09:14:25;9.13;;;5.63;;
22144;SDS011;11238;48.730;11.566;2023-05-07T09:16:54;9.00;;;5.07;;
22144;SDS011;11238;48.730;11.566;2023-05-07T09:19:24;9.80;;;5.45;;
22144;SDS011;11238;48.730;11.566;2023-05-07T09:21:59;5.63;;;4.73;;
22144;SDS011;11238;48.730;11.566;2023-05-07T09:24:29;7.00;;;4.95;;
22144;SDS011;11238;48.730;11.566;2023-05-07T09:26:59;5.95;;;5.30;;
22144;SDS011;11238;48.730;11.566;2023-05-07T09:29:27;7.20;;;5.70;;
22144;SDS011;11238;48.730;11.566;2023-05-07T09:32:06;5.20;;;4.68;;
22144;SDS011;11238;48.730;11.566;2023-05-07T09:34:34;6.63;;;5.15;;
22144;SDS011;11238;48.730;11.566;2023-05-07T09:37:04;5.40;;;4.90;;
22144;SDS011;11238;48.730;11.566;2023-05-07T09:42:07;5.57;;;4.60;;
22144;SDS011;11238;48.730;11.566;2023-05-07T09:44:35;8.48;;;4.95;;
22144;SDS011;11238;48.730;11.566;2023-05-07T09:47:07;6.20;;;5.60;;
22144;SDS011;11238;48.730;11.566;2023-05-07T09:49:39;7.18;;;5.50;;
22144;SDS011;11238;48.730;11.566;2023-05-07T09:52:10;6.60;;;5.03;;
22144;SDS011;11238;48.730;11.566;2023-05-07T09:54:43;7.53;;;5.20;;
22144;SDS011;11238;48.730;11.566;2023-05-07T09:57:12;5.40;;;4.90;;
22144;SDS011;11238;48.730;11.566;2023-05-07T09:59:42;7.68;;;4.57;;
22144;SDS011;11238;48.730;11.566;2023-05-07T10:02:11;6.72;;;4.55;;
22144;SDS011;11238;48.730;11.566;2023-05-07T10:04:45;9.88;;;3.90;;
22144;SDS011;11238;48.730;11.566;2023-05-07T10:07:14;8.23;;;4.25;;
22144;SDS011;11238;48.730;11.566;2023-05-07T10:09:41;5.65;;;4.78;;
22144;SDS011;11238;48.730;11.566;2023-05-07T10:12:17;7.80;;;4.20;;
22144;SDS011;11238;48.730;11.566;2023-05-07T10:14:45;4.80;;;4.20;;
22144;SDS011;11238;48.730;11.566;2023-05-07T10:17:14;6.13;;;4.05;;
22144;SDS011;11238;48.730;11.566;2023-05-07T10:19:44;5.05;;;3.85;;
22144;SDS011;11238;48.730;11.566;2023-05-07T10:22:10;3.90;;;3.50;;
22144;SDS011;11238;48.730;11.566;2023-05-07T10:24:42;4.38;;;3.35;;
22144;SDS011;11238;48.730;11.566;2023-05-07T10:27:15;6.78;;;3.58;;
22144;SDS011;11238;48.730;11.566;2023-05-07T10:30:03;5.85;;;3.78;;
22144;SDS011;11238;48.730;11.566;2023-05-07T10:32:48;4.40;;;3.50;;
22144;SDS011;11238;48.730;11.566;2023-05-07T10:35:24;6.23;;;3.53;;
22144;SDS011;11238;48.730;11.566;2023-05-07T10:37:54;4.78;;;3.72;;
22144;SDS011;11238;48.730;11.566;2023-05-07T10:40:22;5.20;;;3.58;;
22144;SDS011;11238;48.730;11.566;2023-05-07T10:42:54;3.70;;;3.20;;
22144;SDS011;11238;48.730;11.566;2023-05-07T10:45:20;3.60;;;3.20;;
22144;SDS011;11238;48.730;11.566;2023-05-07T10:48:05;3.75;;;3.45;;
22144;SDS011;11238;48.730;11.566;2023-05-07T10:50:32;3.63;;;3.08;;
22144;SDS011;11238;48.730;11.566;2023-05-07T10:55:46;4.95;;;3.05;;
22144;SDS011;11238;48.730;11.566;2023-05-07T11:01:04;3.72;;;2.85;;
22144;SDS011;11238;48.730;11.566;2023-05-07T11:03:36;4.65;;;2.33;;
22144;SDS011;11238;48.730;11.566;2023-05-07T11:06:38;6.35;;;2.60;;
22144;SDS011;11238;48.730;11.566;2023-05-07T11:09:08;4.85;;;2.45;;
22144;SDS011;11238;48.730;11.566;2023-05-07T11:11:53;3.22;;;2.50;;
22144;SDS011;11238;48.730;11.566;2023-05-07T11:17:10;3.47;;;2.20;;
22144;SDS011;11238;48.730;11.566;2023-05-07T11:22:35;2.45;;;2.15;;
22144;SDS011;11238;48.730;11.566;2023-05-07T11:25:22;2.88;;;1.90;;
22144;SDS011;11238;48.730;11.566;2023-05-07T11:28:03;4.40;;;2.38;;
22144;SDS011;11238;48.730;11.566;2023-05-07T11:30:32;2.90;;;1.98;;
22144;SDS011;11238;48.730;11.566;2023-05-07T11:32:58;6.10;;;2.10;;
22144;SDS011;11238;48.730;11.566;2023-05-07T11:35:24;3.60;;;1.85;;
22144;SDS011;11238;48.730;11.566;2023-05-07T11:37:57;2.70;;;2.05;;
22144;SDS011;11238;48.730;11.566;2023-05-07T11:40:25;2.80;;;1.88;;
22144;SDS011;11238;48.730;11.566;2023-05-07T11:42:50;5.35;;;1.83;;
22144;SDS011;11238;48.730;11.566;2023-05-07T11:45:22;3.85;;;1.75;;
22144;SDS011;11238;48.730;11.566;2023-05-07T11:47:50;2.85;;;2.38;;
22144;SDS011;11238;48.730;11.566;2023-05-07T11:50:16;2.83;;;1.83;;
22144;SDS011;11238;48.730;11.566;2023-05-07T11:52:49;3.53;;;2.00;;
22144;SDS011;11238;48.730;11.566;2023-05-07T11:55:17;3.10;;;1.75;;
22144;SDS011;11238;48.730;11.566;2023-05-07T11:57:44;3.17;;;1.67;;
22144;SDS011;11238;48.730;11.566;2023-05-07T12:00:10;2.63;;;1.60;;
22144;SDS011;11238;48.730;11.566;2023-05-07T12:02:40;2.38;;;1.70;;
22144;SDS011;11238;48.730;11.566;2023-05-07T12:05:07;3.35;;;1.50;;
22144;SDS011;11238;48.730;11.566;2023-05-07T12:07:33;3.08;;;1.70;;
22144;SDS011;11238;48.730;11.566;2023-05-07T12:10:06;1.73;;;1.63;;
22144;SDS011;11238;48.730;11.566;2023-05-07T12:12:37;3.38;;;1.88;;
22144;SDS011;11238;48.730;11.566;2023-05-07T12:15:09;4.22;;;2.28;;
22144;SDS011;11238;48.730;11.566;2023-05-07T12:17:35;2.08;;;1.48;;
22144;SDS011;11238;48.730;11.566;2023-05-07T12:20:02;1.80;;;1.70;;
22144;SDS011;11238;48.730;11.566;2023-05-07T12:22:28;2.80;;;1.70;;
22144;SDS011;11238;48.730;11.566;2023-05-07T12:24:57;3.08;;;1.70;;
22144;SDS011;11238;48.730;11.566;2023-05-07T12:27:24;1.92;;;1.50;;
22144;SDS011;11238;48.730;11.566;2023-05-07T12:29:51;2.92;;;1.65;;
22144;SDS011;11238;48.730;11.566;2023-05-07T12:32:18;2.20;;;1.73;;
22144;SDS011;11238;48.730;11.566;2023-05-07T12:34:49;4.50;;;1.70;;
22144;SDS011;11238;48.730;11.566;2023-05-07T12:37:15;2.10;;;1.63;;
22144;SDS011;11238;48.730;11.566;2023-05-07T12:39:48;3.08;;;2.50;;
22144;SDS011;11238;48.730;11.566;2023-05-07T12:42:15;2.80;;;1.60;;
22144;SDS011;11238;48.730;11.566;2023-05-07T12:44:41;2.83;;;1.50;;
22144;SDS011;11238;48.730;11.566;2023-05-07T12:47:11;3.00;;;1.33;;
22144;SDS011;11238;48.730;11.566;2023-05-07T12:49:37;2.85;;;1.35;;
22144;SDS011;11238;48.730;11.566;2023-05-07T12:52:04;3.28;;;1.92;;
22144;SDS011;11238;48.730;11.566;2023-05-07T12:54:33;4.72;;;1.60;;
22144;SDS011;11238;48.730;11.566;2023-05-07T12:57:07;2.00;;;1.60;;
22144;SDS011;11238;48.730;11.566;2023-05-07T12:59:40;3.75;;;1.70;;
22144;SDS011;11238;48.730;11.566;2023-05-07T13:02:07;2.53;;;1.60;;
22144;SDS011;11238;48.730;11.566;2023-05-07T13:04:34;3.00;;;1.45;;
22144;SDS011;11238;48.730;11.566;2023-05-07T13:07:01;3.92;;;1.70;;
22144;SDS011;11238;48.730;11.566;2023-05-07T13:09:27;4.07;;;1.52;;
22144;SDS011;11238;48.730;11.566;2023-05-07T13:11:57;2.03;;;1.50;;
22144;SDS011;11238;48.730;11.566;2023-05-07T13:14:26;1.55;;;1.45;;
22144;SDS011;11238;48.730;11.566;2023-05-07T13:16:52;4.03;;;1.52;;
22144;SDS011;11238;48.730;11.566;2023-05-07T13:19:18;1.60;;;1.40;;
22144;SDS011;11238;48.730;11.566;2023-05-07T13:21:43;3.05;;;1.70;;
22144;SDS011;11238;48.730;11.566;2023-05-07T13:24:09;2.45;;;1.50;;
22144;SDS011;11238;48.730;11.566;2023-05-07T13:26:35;3.50;;;1.50;;
22144;SDS011;11238;48.730;11.566;2023-05-07T13:29:00;2.35;;;1.60;;
22144;SDS011;11238;48.730;11.566;2023-05-07T13:31:26;2.75;;;1.60;;
22144;SDS011;11238;48.730;11.566;2023-05-07T13:33:52;2.97;;;1.40;;
22144;SDS011;11238;48.730;11.566;2023-05-07T13:36:19;2.55;;;1.50;;
22144;SDS011;11238;48.730;11.566;2023-05-07T13:38:45;3.17;;;1.88;;
22144;SDS011;11238;48.730;11.566;2023-05-07T13:41:12;3.75;;;1.50;;
22144;SDS011;11238;48.730;11.566;2023-05-07T13:43:38;1.92;;;1.20;;
22144;SDS011;11238;48.730;11.566;2023-05-07T13:46:03;2.97;;;1.58;;
22144;SDS011;11238;48.730;11.566;2023-05-07T13:48:29;3.17;;;1.52;;
22144;SDS011;11238;48.730;11.566;2023-05-07T13:50:55;1.48;;;1.35;;
22144;SDS011;11238;48.730;11.566;2023-05-07T13:53:21;4.28;;;1.50;;
22144;SDS011;11238;48.730;11.566;2023-05-07T13:55:47;4.40;;;1.98;;
22144;SDS011;11238;48.730;11.566;2023-05-07T13:58:13;1.90;;;1.45;;
22144;SDS011;11238;48.730;11.566;2023-05-07T14:00:39;2.60;;;1.80;;
22144;SDS011;11238;48.730;11.566;2023-05-07T14:03:05;1.25;;;1.10;;
22144;SDS011;11238;48.730;11.566;2023-05-07T14:05:30;1.48;;;1.30;;
22144;SDS011;11238;48.730;11.566;2023-05-07T14:07:57;5.40;;;1.40;;
22144;SDS011;11238;48.730;11.566;2023-05-07T14:10:23;1.75;;;1.30;;
22144;SDS011;11238;48.730;11.566;2023-05-07T14:12:49;3.08;;;1.20;;
22144;SDS011;11238;48.730;11.566;2023-05-07T14:15:37;1.48;;;1.38;;
22144;SDS011;11238;48.730;11.566;2023-05-07T14:18:03;2.13;;;1.45;;
22144;SDS011;11238;48.730;11.566;2023-05-07T14:20:29;6.38;;;1.60;;
22144;SDS011;11238;48.730;11.566;2023-05-07T14:22:56;2.65;;;1.23;;
22144;SDS011;11238;48.730;11.566;2023-05-07T14:25:22;2.10;;;1.30;;
22144;SDS011;11238;48.730;11.566;2023-05-07T14:27:50;2.83;;;1.40;;
22144;SDS011;11238;48.730;11.566;2023-05-07T14:30:16;2.47;;;1.33;;
22144;SDS011;11238;48.730;11.566;2023-05-07T14:32:42;2.33;;;1.38;;
22144;SDS011;11238;48.730;11.566;2023-05-07T14:35:08;1.73;;;1.33;;
22144;SDS011;11238;48.730;11.566;2023-05-07T14:37:34;3.65;;;1.40;;
22144;SDS011;11238;48.730;11.566;2023-05-07T14:40:00;2.63;;;1.60;;
22144;SDS011;11238;48.730;11.566;2023-05-07T14:42:26;2.03;;;1.40;;
22144;SDS011;11238;48.730;11.566;2023-05-07T14:44:52;2.65;;;1.33;;
22144;SDS011;11238;48.730;11.566;2023-05-07T14:47:18;2.10;;;1.50;;
22144;SDS011;11238;48.730;11.566;2023-05-07T14:49:44;4.18;;;1.70;;
22144;SDS011;11238;48.730;11.566;2023-05-07T14:52:10;2.67;;;1.38;;
22144;SDS011;11238;48.730;11.566;2023-05-07T14:54:39;1.55;;;1.33;;
22144;SDS011;11238;48.730;11.566;2023-05-07T14:57:05;1.83;;;1.50;;
22144;SDS011;11238;48.730;11.566;2023-05-07T14:59:32;2.00;;;1.60;;
22144;SDS011;11238;48.730;11.566;2023-05-07T15:01:58;3.45;;;1.30;;